Time;durP1;ratioP1;P1;durP2;ratioP2;P2;SDS_P1;SDS_P2;PMS_P1;PMS_P2;Temp;Humidity;BMP_temperature;BMP_pressure;BME280_temperature;BME280_humidity;BME280_pressure;Samples;Min_cycle;Max_cycle;Signal;HPM_P1;HPM_P2
2023/04/20 00:00:31;;;;;;;9.15;7.32;;;12.20;99.90;;;11.56;100.00;101079.72;4134260;28;20093;-80
2023/04/20 00:02:32;;;;;;;9.32;7.35;;;12.20;99.90;;;11.48;100.00;101091.09;4136050;28;20030;-80
2023/04/20 00:04:33;;;;;;;9.73;7.18;;;12.20;99.90;;;11.39;100.00;101088.53;4126473;28;20496;-80
2023/04/20 00:06:34;;;;;;;11.57;8.10;;;12.10;99.90;;;11.32;100.00;101090.13;4136436;28;20022;-80
2023/04/20 00:08:35;;;;;;;12.15;8.75;;;12.10;99.90;;;11.28;100.00;101094.03;4133892;28;20379;-81
2023/04/20 00:10:35;;;;;;;12.15;8.00;;;12.00;99.90;;;11.28;100.00;101094.03;4137590;28;20018;-80
2023/04/20 00:12:36;;;;;;;10.65;7.22;;;11.90;99.90;;;11.21;100.00;101082.41;4137528;28;20030;-80
2023/04/20 00:14:37;;;;;;;9.38;7.25;;;11.90;99.90;;;11.24;100.00;101095.31;4137522;28;20029;-80
2023/04/20 00:16:38;;;;;;;11.38;7.97;;;11.80;99.90;;;11.19;100.00;101094.97;4135928;28;20398;-80
2023/04/20 00:18:39;;;;;;;9.02;7.65;;;11.80;99.90;;;11.12;100.00;101092.09;4136128;28;20030;-80
2023/04/20 00:20:40;;;;;;;10.63;7.78;;;11.80;99.90;;;10.97;100.00;101080.38;4136402;28;20042;-80
2023/04/20 00:22:41;;;;;;;9.60;7.65;;;11.80;99.90;;;11.01;100.00;101095.78;4137357;28;20113;-80
2023/04/20 00:24:41;;;;;;;10.55;6.97;;;11.70;99.90;;;11.02;100.00;101097.44;4137287;28;20033;-80
2023/04/20 00:26:42;;;;;;;10.00;6.93;;;11.70;99.90;;;10.92;100.00;101082.66;4121163;28;20035;-80
2023/04/20 00:28:43;;;;;;;10.32;7.55;;;11.60;99.90;;;10.90;100.00;101089.91;4120806;28;20038;-80
2023/04/20 00:30:44;;;;;;;9.75;7.35;;;11.60;99.90;;;10.85;100.00;101081.56;4127823;28;20022;-80
2023/04/20 00:32:45;;;;;;;11.73;8.35;;;11.60;99.90;;;10.97;100.00;101089.13;4130955;28;20462;-80
2023/04/20 00:34:46;;;;;;;11.55;8.45;;;11.60;99.90;;;10.89;100.00;101082.94;4135255;28;20027;-80
2023/04/20 00:36:47;;;;;;;12.13;8.32;;;11.60;99.90;;;10.84;100.00;101078.09;4132056;28;20495;-80
2023/04/20 00:38:48;;;;;;;10.68;7.82;;;11.60;99.90;;;10.75;100.00;101075.56;4128145;28;20049;-80
2023/04/20 00:40:52;;;;;;;10.60;7.35;;;11.50;99.90;;;10.66;100.00;101072.00;4131154;28;20063;-80
2023/04/20 00:42:52;;;;;;;12.32;7.93;;;11.40;99.90;;;10.57;100.00;101072.06;4133886;28;20475;-80
2023/04/20 00:44:53;;;;;;;12.82;8.25;;;11.30;99.90;;;10.46;100.00;101073.91;4124461;28;20105;-80
2023/04/20 00:46:56;;;;;;;11.50;8.13;;;11.20;99.90;;;10.43;100.00;101070.72;4127801;28;20118;-80
2023/04/20 00:48:57;;;;;;;13.73;8.30;;;11.10;99.90;;;10.37;100.00;101066.03;4130510;28;20034;-80
2023/04/20 00:50:58;;;;;;;9.65;7.40;;;11.10;99.90;;;10.29;100.00;101061.50;4121225;28;20019;-80
2023/04/20 00:53:00;;;;;;;9.73;7.30;;;11.10;99.90;;;10.22;100.00;101062.22;4124567;28;20068;-79
2023/04/20 00:55:02;;;;;;;13.80;8.13;;;11.00;99.90;;;10.21;100.00;101068.50;4135605;28;20033;-80
2023/04/20 00:57:04;;;;;;;10.45;8.18;;;10.90;99.90;;;10.12;100.00;101058.78;4130636;28;20046;-79
2023/04/20 00:59:05;;;;;;;10.75;7.30;;;10.90;99.90;;;10.05;100.00;101062.97;4135687;28;20050;-80
2023/04/20 01:01:06;;;;;;;10.35;6.85;;;10.80;99.90;;;9.90;100.00;101050.25;4125515;28;20030;-80
2023/04/20 01:03:07;;;;;;;12.60;7.50;;;10.70;99.90;;;9.86;100.00;101061.22;4136708;28;20031;-80
2023/04/20 01:05:09;;;;;;;9.23;7.18;;;10.60;99.90;;;9.78;100.00;101055.84;4135445;28;20075;-80
2023/04/20 01:07:09;;;;;;;10.07;7.18;;;10.50;99.90;;;9.78;100.00;101059.31;4123140;28;20047;-80
2023/04/20 01:09:11;;;;;;;10.93;8.52;;;10.50;99.90;;;9.70;100.00;101053.94;4134722;28;20041;-80
2023/04/20 01:11:12;;;;;;;10.52;7.40;;;10.40;99.90;;;9.73;100.00;101056.28;4151542;28;20021;-80
2023/04/20 01:13:13;;;;;;;8.98;6.97;;;10.40;99.90;;;9.74;100.00;101057.94;4136604;28;20513;-80
2023/04/20 01:15:13;;;;;;;10.63;7.45;;;10.40;99.90;;;9.66;100.00;101047.28;4134371;28;20030;-80
2023/04/20 01:17:14;;;;;;;10.40;7.57;;;10.40;99.90;;;9.73;100.00;101058.09;4123350;28;20038;-80
2023/04/20 01:19:15;;;;;;;10.23;7.43;;;10.40;99.90;;;9.78;100.00;101053.22;4126417;28;20022;-80
2023/04/20 01:21:20;;;;;;;9.40;7.35;;;10.50;99.90;;;9.69;100.00;101048.81;4130656;28;20038;-80
2023/04/20 01:23:21;;;;;;;11.55;7.10;;;10.40;99.90;;;9.67;100.00;101046.31;4136461;28;20057;-80
2023/04/20 01:25:22;;;;;;;9.23;6.78;;;10.40;99.90;;;9.67;100.00;101046.31;4135110;28;20018;-80
2023/04/20 01:27:23;;;;;;;8.50;6.60;;;10.40;99.90;;;9.65;100.00;101053.50;4134991;28;20027;-80
2023/04/20 01:29:24;;;;;;;8.65;6.45;;;10.40;99.90;;;9.69;100.00;101054.91;4130387;28;20030;-80
2023/04/20 01:31:25;;;;;;;10.10;7.05;;;10.30;99.90;;;9.80;100.00;101046.81;4136020;28;20390;-80
2023/04/20 01:33:26;;;;;;;9.27;7.47;;;10.40;99.90;;;9.83;100.00;101057.06;4136391;28;20109;-80
2023/04/20 01:35:27;;;;;;;9.20;6.72;;;10.50;99.90;;;9.85;100.00;101049.88;4123268;28;20022;-80
2023/04/20 01:37:29;;;;;;;9.57;7.07;;;10.50;99.90;;;9.90;100.00;101045.00;4135047;28;20049;-80
2023/04/20 01:39:30;;;;;;;9.55;7.03;;;10.60;99.90;;;9.98;100.00;101050.38;4151079;28;20026;-80
2023/04/20 01:41:31;;;;;;;8.65;6.55;;;10.60;99.90;;;9.89;100.00;101039.84;4136485;28;20034;-80
2023/04/20 01:43:34;;;;;;;8.85;6.05;;;10.60;99.90;;;9.88;100.00;101036.41;4134993;28;20019;-80
2023/04/20 01:45:35;;;;;;;10.02;6.47;;;10.60;99.90;;;9.98;100.00;101045.09;4134843;28;20426;-81
2023/04/20 01:47:37;;;;;;;8.52;6.57;;;10.60;99.90;;;10.00;100.00;101037.88;4134477;28;20030;-80
2023/04/20 01:49:37;;;;;;;9.40;6.82;;;10.60;99.90;;;9.99;100.00;101043.28;4135153;28;20030;-80
2023/04/20 01:51:38;;;;;;;8.30;6.15;;;10.70;99.90;;;9.95;100.00;101042.75;4151174;28;20026;-81
2023/04/20 01:53:39;;;;;;;8.65;6.10;;;10.70;99.90;;;9.94;100.00;101038.47;4136073;28;20039;-80
2023/04/20 01:55:40;;;;;;;9.77;6.53;;;10.60;99.90;;;9.94;100.00;101038.47;4134277;28;20042;-80
2023/04/20 01:57:43;;;;;;;8.55;6.28;;;10.60;99.90;;;9.91;100.00;101038.75;4120337;28;20502;-80
2023/04/20 01:59:44;;;;;;;8.55;5.95;;;10.60;99.90;;;9.87;100.00;101026.00;4120015;28;20491;-80
2023/04/20 02:01:45;;;;;;;8.23;6.43;;;10.60;99.90;;;9.87;100.00;101033.91;4119828;28;20026;-80
2023/04/20 02:03:47;;;;;;;7.82;6.13;;;10.60;99.90;;;9.84;100.00;101037.66;4131635;28;20031;-80
2023/04/20 02:05:48;;;;;;;10.18;6.82;;;10.60;99.90;;;9.80;100.00;101031.00;4123404;28;20061;-80
2023/04/20 02:07:50;;;;;;;9.00;6.03;;;10.60;99.90;;;9.70;100.00;101024.13;4125079;28;20031;-80
2023/04/20 02:09:50;;;;;;;6.90;5.25;;;10.50;99.90;;;9.79;100.00;101033.81;4129937;28;20033;-80
2023/04/20 02:11:51;;;;;;;8.82;6.20;;;10.50;99.90;;;9.78;100.00;101034.78;4134883;28;20022;-80
2023/04/20 02:13:52;;;;;;;9.85;6.40;;;10.50;99.90;;;9.70;100.00;101035.50;4135887;28;20030;-80
2023/04/20 02:15:53;;;;;;;6.70;5.28;;;10.50;99.90;;;9.66;100.00;101034.13;4134846;28;20073;-80
2023/04/20 02:17:54;;;;;;;8.30;5.43;;;10.40;99.90;;;9.59;100.00;101038.28;4134499;28;20117;-80
2023/04/20 02:19:55;;;;;;;8.82;6.20;;;10.30;99.90;;;9.50;100.00;101039.13;4136036;28;20033;-80
2023/04/20 02:21:56;;;;;;;7.63;5.95;;;10.20;99.90;;;9.45;100.00;101036.94;4134692;28;20038;-80
2023/04/20 02:23:56;;;;;;;9.07;6.40;;;10.20;99.90;;;9.35;100.00;101041.38;4124620;28;20030;-80
2023/04/20 02:25:57;;;;;;;8.10;5.90;;;10.10;99.90;;;9.33;100.00;101039.88;4134981;28;20030;-80
2023/04/20 02:27:58;;;;;;;8.60;6.18;;;10.10;99.90;;;9.27;100.00;101037.78;4121576;28;20462;-80
2023/04/20 02:29:59;;;;;;;7.32;6.07;;;10.00;99.90;;;9.22;100.00;101035.59;4137804;28;20109;-80
2023/04/20 02:32:00;;;;;;;10.43;6.88;;;10.00;99.90;;;9.12;100.00;101026.88;4137799;28;20026;-80
2023/04/20 02:34:04;;;;;;;10.13;6.28;;;9.90;99.90;;;9.13;100.00;101036.44;4139086;28;20030;-80
2023/04/20 02:36:06;;;;;;;8.93;6.05;;;9.90;99.90;;;9.11;100.00;101032.28;4137822;28;20123;-80
2023/04/20 02:38:06;;;;;;;7.50;6.18;;;9.90;99.90;;;9.04;100.00;101024.09;4137613;28;20038;-80
2023/04/20 02:40:08;;;;;;;8.50;6.40;;;9.90;99.90;;;9.03;100.00;101029.50;4137615;28;20037;-80
2023/04/20 02:42:09;;;;;;;7.97;6.63;;;9.80;99.90;;;9.03;100.00;101034.75;4121686;28;20035;-80
2023/04/20 02:44:10;;;;;;;9.23;6.22;;;9.80;99.90;;;9.02;100.00;101035.75;4126194;28;20407;-80
2023/04/20 02:46:11;;;;;;;11.15;6.57;;;9.80;99.90;;;9.00;100.00;101037.66;4136428;28;20037;-80
2023/04/20 02:48:12;;;;;;;8.10;6.10;;;9.70;99.90;;;8.95;100.00;101026.72;4133395;28;20483;-80
2023/04/20 02:50:14;;;;;;;8.85;6.60;;;9.70;99.90;;;8.94;100.00;101033.78;4122732;28;20058;-80
2023/04/20 02:52:14;;;;;;;8.13;6.63;;;9.70;99.90;;;9.01;100.00;101036.72;4122564;28;20027;-80
2023/04/20 02:54:16;;;;;;;9.50;7.18;;;9.70;99.90;;;8.94;100.00;101031.16;4122457;28;20018;-80
2023/04/20 02:56:17;;;;;;;11.30;7.35;;;9.70;99.90;;;8.87;100.00;101028.25;4132183;28;20027;-80
2023/04/20 02:58:18;;;;;;;8.88;6.75;;;9.70;99.90;;;8.89;100.00;101039.47;4137448;28;20019;-80
2023/04/20 03:00:19;;;;;;;10.05;6.93;;;9.70;99.90;;;8.90;100.00;101043.75;4132758;28;20026;-80
2023/04/20 03:02:20;;;;;;;10.10;6.57;;;9.70;99.90;;;8.85;100.00;101038.09;4138243;28;20116;-80
2023/04/20 03:04:21;;;;;;;10.55;6.63;;;9.60;99.90;;;8.86;100.00;101039.75;4137483;28;20030;-80
2023/04/20 03:06:22;;;;;;;8.98;6.53;;;9.60;99.90;;;8.83;100.00;101037.41;4124562;28;20045;-80
2023/04/20 03:08:23;;;;;;;8.77;6.53;;;9.60;99.90;;;8.69;100.00;101037.78;4132521;28;20042;-80
2023/04/20 03:10:23;;;;;;;7.88;6.45;;;9.50;99.90;;;8.76;100.00;101038.06;4136727;28;20025;-80
2023/04/20 03:12:25;;;;;;;9.05;6.45;;;9.50;99.90;;;8.74;100.00;101040.84;4138119;28;20474;-80
2023/04/20 03:14:26;;;;;;;9.43;6.63;;;9.50;99.90;;;8.68;100.00;101041.41;4126426;28;20097;-80
2023/04/20 03:16:27;;;;;;;8.27;6.95;;;9.40;99.90;;;8.66;100.00;101032.00;4126554;28;20069;-80
2023/04/20 03:18:27;;;;;;;8.55;6.45;;;9.40;99.90;;;8.64;100.00;101037.38;4134596;28;20037;-79
2023/04/20 03:20:29;;;;;;;7.80;5.47;;;9.40;99.90;;;8.59;100.00;101047.47;4125016;28;20031;-80
2023/04/20 03:22:30;;;;;;;8.35;6.30;;;9.40;99.90;;;8.53;100.00;101039.28;4129313;28;20517;-79
2023/04/20 03:24:31;;;;;;;8.40;6.78;;;9.30;99.90;;;8.53;100.00;101048.00;4136914;28;20030;-79
2023/04/20 03:26:32;;;;;;;9.70;6.30;;;9.30;99.90;;;8.48;100.00;101037.09;4136907;28;20525;-79
2023/04/20 03:28:33;;;;;;;9.43;6.80;;;9.30;99.90;;;8.48;100.00;101038.88;4137013;28;20061;-79
2023/04/20 03:30:34;;;;;;;11.35;7.68;;;9.30;99.90;;;8.50;100.00;101045.66;4127474;28;20022;-79
2023/04/20 03:32:34;;;;;;;10.00;7.47;;;9.20;99.90;;;8.50;100.00;101047.44;4124352;28;20041;-79
2023/04/20 03:34:35;;;;;;;9.48;7.30;;;9.20;99.90;;;8.48;100.00;101031.81;4122355;28;20023;-79
2023/04/20 03:36:36;;;;;;;8.30;6.80;;;9.30;99.90;;;8.54;100.00;101043.59;4136929;28;20053;-79
2023/04/20 03:38:37;;;;;;;11.15;7.10;;;9.30;99.90;;;8.57;100.00;101048.59;4137160;28;20562;-80
2023/04/20 03:40:38;;;;;;;10.60;6.80;;;9.30;99.90;;;8.60;100.00;101043.06;4137983;28;20089;-79
2023/04/20 03:42:40;;;;;;;10.27;6.97;;;9.30;99.90;;;8.62;100.00;101052.47;4136676;28;20030;-79
2023/04/20 03:44:40;;;;;;;9.57;7.57;;;9.30;99.90;;;8.57;100.00;101038.88;4137848;28;20054;-80
2023/04/20 03:46:41;;;;;;;11.10;6.88;;;9.30;99.90;;;8.58;100.00;101045.81;4136450;28;20030;-79
2023/04/20 03:48:43;;;;;;;8.70;6.55;;;9.30;99.90;;;8.58;100.00;101037.06;4152646;28;20054;-80
2023/04/20 03:50:44;;;;;;;9.35;6.68;;;9.30;99.90;;;8.56;100.00;101041.66;4137818;28;20106;-79
2023/04/20 03:52:45;;;;;;;11.05;6.68;;;9.30;99.90;;;8.50;100.00;101045.66;4137872;28;20031;-80
2023/04/20 03:54:46;;;;;;;10.38;7.65;;;9.20;99.90;;;8.41;100.00;101033.31;4137917;28;20022;-79
2023/04/20 03:56:48;;;;;;;11.38;7.97;;;9.20;99.90;;;8.41;100.00;101038.56;4136531;28;20034;-80
2023/04/20 03:58:49;;;;;;;10.90;7.72;;;9.20;99.90;;;8.41;100.00;101035.94;4133314;28;20022;-79
2023/04/20 04:00:50;;;;;;;9.70;7.25;;;9.20;99.90;;;8.38;100.00;101027.50;4137320;28;20029;-79
2023/04/20 04:02:51;;;;;;;11.63;7.68;;;9.20;99.90;;;8.40;100.00;101030.81;4136585;28;20033;-80
2023/04/20 04:04:51;;;;;;;10.30;7.18;;;9.10;99.90;;;8.42;100.00;101034.16;4130926;28;20093;-79
2023/04/20 04:06:52;;;;;;;10.40;7.32;;;9.20;99.90;;;8.39;100.00;101029.16;4137608;28;20026;-79
2023/04/20 04:08:53;;;;;;;11.10;7.55;;;9.20;99.90;;;8.36;100.00;101035.53;4136242;28;20038;-80
2023/04/20 04:10:54;;;;;;;10.80;7.32;;;9.10;99.90;;;8.33;100.00;101035.78;4125945;28;20026;-79
2023/04/20 04:12:55;;;;;;;11.68;7.82;;;9.10;99.90;;;8.39;100.00;101037.88;4129270;28;20030;-79
2023/04/20 04:14:56;;;;;;;11.43;7.47;;;9.10;99.90;;;8.33;100.00;101041.88;4133487;28;20069;-80
2023/04/20 04:16:57;;;;;;;11.27;7.32;;;9.10;99.90;;;8.32;100.00;101031.50;4135809;28;20044;-79
2023/04/20 04:18:58;;;;;;;11.30;6.93;;;9.10;99.90;;;8.25;100.00;101028.53;4126796;28;20029;-79
2023/04/20 04:20:59;;;;;;;13.80;7.00;;;9.00;99.90;;;8.08;100.00;101013.41;4137367;28;20038;-80
2023/04/20 04:23:00;;;;;;;13.45;7.40;;;9.00;99.90;;;8.24;100.00;101033.94;4136043;28;20029;-80
2023/04/20 04:25:00;;;;;;;10.90;7.65;;;9.00;99.90;;;8.21;100.00;101032.38;4136016;28;20517;-79
2023/04/20 04:27:04;;;;;;;11.43;7.60;;;9.00;99.90;;;8.16;100.00;101037.22;4135978;28;20031;-80
2023/04/20 04:29:05;;;;;;;13.25;8.07;;;8.90;99.90;;;8.13;100.00;101031.38;4128712;28;20038;-80
2023/04/20 04:31:08;;;;;;;10.50;7.93;;;8.90;99.90;;;8.14;100.00;101025.19;4136968;28;20026;-80
2023/04/20 04:33:11;;;;;;;11.82;8.43;;;8.90;99.90;;;8.08;100.00;101030.97;4135832;28;20041;-80
2023/04/20 04:35:13;;;;;;;11.05;8.23;;;8.90;99.90;;;8.10;100.00;101029.03;4125563;28;20073;-80
2023/04/20 04:37:14;;;;;;;10.68;8.02;;;8.90;99.90;;;8.05;100.00;101036.50;4137339;28;20036;-79
2023/04/20 04:39:15;;;;;;;11.05;8.43;;;8.80;99.90;;;8.01;100.00;101035.91;4137138;28;20435;-80
2023/04/20 04:41:16;;;;;;;14.57;8.57;;;8.80;99.90;;;7.97;100.00;101038.94;4135633;28;20093;-79
2023/04/20 04:43:18;;;;;;;12.73;9.48;;;8.80;99.90;;;7.94;100.00;101028.72;4130519;28;20019;-80
2023/04/20 04:45:19;;;;;;;12.65;8.73;;;8.80;99.90;;;7.95;100.00;101035.59;4135526;28;20077;-80
2023/04/20 04:47:21;;;;;;;13.75;9.23;;;8.70;99.90;;;7.98;100.00;101041.44;4147071;28;20030;-80
2023/04/20 04:49:25;;;;;;;13.80;8.98;;;8.70;99.90;;;7.91;100.00;101037.69;4134394;28;20034;-80
2023/04/20 04:51:26;;;;;;;12.75;8.77;;;8.70;99.90;;;7.86;100.00;101036.41;4135700;28;20033;-80
2023/04/20 04:53:27;;;;;;;11.63;8.73;;;8.70;99.90;;;7.82;100.00;101038.47;4136840;28;20111;-80
2023/04/20 04:55:28;;;;;;;14.07;10.05;;;8.60;99.90;;;7.78;100.00;101029.19;4124106;28;20026;-80
2023/04/20 04:57:29;;;;;;;13.27;8.55;;;8.60;99.90;;;7.79;100.00;101036.91;4120619;28;20030;-79
2023/04/20 04:59:30;;;;;;;14.52;10.00;;;8.50;99.90;;;7.69;100.00;101036.06;4121083;28;20027;-80
2023/04/20 05:01:31;;;;;;;14.27;8.50;;;8.50;99.90;;;7.65;100.00;101029.38;4126931;28;20049;-79
2023/04/20 05:03:31;;;;;;;12.68;8.70;;;8.40;99.90;;;7.65;100.00;101045.16;4130747;28;20034;-80
2023/04/20 05:05:32;;;;;;;13.85;9.10;;;8.40;99.90;;;7.61;100.00;101046.38;4136643;28;20032;-80
2023/04/20 05:07:33;;;;;;;14.45;8.80;;;8.40;99.90;;;7.56;100.00;101040.66;4136651;28;20126;-80
2023/04/20 05:09:35;;;;;;;15.00;9.77;;;8.30;99.90;;;7.58;100.00;101044.03;4135505;28;20026;-80
2023/04/20 05:11:35;;;;;;;12.38;9.40;;;8.40;99.90;;;7.61;100.00;101048.19;4131509;28;20033;-80
2023/04/20 05:13:36;;;;;;;12.93;9.43;;;8.40;99.90;;;7.53;100.00;101040.94;4136482;28;20026;-80
2023/04/20 05:15:37;;;;;;;11.93;8.43;;;8.30;99.90;;;7.55;100.00;101040.81;4135216;28;20030;-80
2023/04/20 05:17:38;;;;;;;13.60;9.60;;;8.30;99.90;;;7.55;100.00;101049.53;4126110;28;20027;-79
2023/04/20 05:19:39;;;;;;;12.02;9.07;;;8.30;99.90;;;7.45;100.00;101027.63;4129477;28;20022;-80
2023/04/20 05:21:40;;;;;;;12.95;8.90;;;8.30;99.90;;;7.54;100.00;101047.84;4136288;28;20422;-79
2023/04/20 05:23:40;;;;;;;11.98;9.10;;;8.30;99.90;;;7.51;100.00;101045.47;4135085;28;20026;-79
2023/04/20 05:25:41;;;;;;;13.55;9.52;;;8.30;99.90;;;7.48;100.00;101045.75;4135227;28;20030;-79
2023/04/20 05:27:42;;;;;;;12.43;9.43;;;8.30;99.90;;;7.51;100.00;101053.34;4134951;28;20026;-79
2023/04/20 05:29:43;;;;;;;12.68;9.70;;;8.30;99.90;;;7.44;100.00;101036.44;4123438;28;20027;-80
2023/04/20 05:31:44;;;;;;;14.52;9.80;;;8.30;99.90;;;7.53;100.00;101051.44;4134420;28;20046;-79
2023/04/20 05:33:45;;;;;;;13.65;9.60;;;8.30;99.90;;;7.57;100.00;101050.22;4124960;28;20035;-80
2023/04/20 05:35:46;;;;;;;12.48;9.60;;;8.30;99.90;;;7.59;100.00;101050.91;4136247;28;20022;-80
2023/04/20 05:37:47;;;;;;;13.57;9.93;;;8.30;99.90;;;7.56;100.00;101045.09;4151114;28;20102;-80
2023/04/20 05:39:48;;;;;;;13.60;9.93;;;8.30;99.90;;;7.60;100.00;101042.09;4136373;28;20089;-80
2023/04/20 05:41:49;;;;;;;13.13;10.30;;;8.40;99.90;;;7.62;100.00;101042.78;4136181;28;20034;-80
2023/04/20 05:43:50;;;;;;;12.65;10.00;;;8.40;99.90;;;7.67;100.00;101048.50;4126780;28;20165;-80
2023/04/20 05:45:51;;;;;;;14.20;9.27;;;8.40;99.90;;;7.71;100.00;101052.50;4131406;28;20154;-80
2023/04/20 05:47:53;;;;;;;11.95;9.18;;;8.40;99.90;;;7.75;100.00;101051.28;4135481;28;20030;-80
2023/04/20 05:49:54;;;;;;;12.40;9.50;;;8.50;99.90;;;7.80;100.00;101059.59;4135193;28;20030;-80
2023/04/20 05:51:56;;;;;;;13.98;9.98;;;8.50;99.90;;;7.85;100.00;101061.00;4128899;28;20053;-80
2023/04/20 05:53:57;;;;;;;15.98;9.30;;;8.60;99.90;;;7.86;100.00;101066.13;4136348;28;20560;-80
2023/04/20 05:55:58;;;;;;;13.88;9.68;;;8.60;99.90;;;7.85;100.00;101061.84;4135561;28;20034;-80
2023/04/20 05:57:58;;;;;;;13.32;9.75;;;8.60;99.90;;;7.90;100.00;101064.91;4125614;28;20061;-80
2023/04/20 06:00:00;;;;;;;14.40;9.55;;;8.60;99.90;;;7.89;100.00;101065.84;4136090;28;20375;-80
2023/04/20 06:02:02;;;;;;;16.67;9.52;;;8.60;99.90;;;7.95;100.00;101064.50;4135411;28;20038;-80
2023/04/20 06:04:03;;;;;;;12.82;9.05;;;8.70;99.90;;;7.92;100.00;101060.34;4134656;28;20068;-80
2023/04/20 06:06:04;;;;;;;19.08;9.45;;;8.70;99.90;;;7.99;100.00;101063.28;4119173;28;20530;-80
2023/04/20 06:08:05;;;;;;;11.13;8.77;;;8.70;99.90;;;8.02;100.00;101068.28;4126839;28;20102;-80
2023/04/20 06:10:07;;;;;;;12.50;9.25;;;8.70;99.90;;;8.08;100.00;101059.88;4123421;28;20518;-80
2023/04/20 06:12:08;;;;;;;13.73;9.55;;;8.80;99.90;;;8.07;100.00;101050.31;4133227;28;20076;-80
2023/04/20 06:14:10;;;;;;;11.63;8.60;;;8.80;99.90;;;8.12;100.00;101054.19;4107704;28;20051;-80
2023/04/20 06:16:11;;;;;;;12.13;8.88;;;8.80;99.90;;;8.19;100.00;101063.22;4134298;28;20022;-80
2023/04/20 06:18:12;;;;;;;11.93;8.50;;;8.90;99.90;;;8.25;100.00;101067.97;4134625;28;20033;-81
2023/04/20 06:20:13;;;;;;;13.32;9.18;;;8.90;99.90;;;8.31;100.00;101077.13;4134601;28;20403;-80
2023/04/20 06:22:15;;;;;;;10.35;8.73;;;9.00;99.90;;;8.37;100.00;101071.34;4139205;28;20045;-80
2023/04/20 06:24:16;;;;;;;11.38;7.97;;;9.00;99.90;;;8.47;100.00;101066.97;4134736;28;20030;-81
2023/04/20 06:26:17;;;;;;;10.35;7.72;;;9.10;99.90;;;8.55;100.00;101047.88;4135898;28;20033;-80
2023/04/20 06:28:18;;;;;;;13.85;8.93;;;9.20;99.90;;;8.72;100.00;101063.81;4135652;28;20518;-80
2023/04/20 06:30:19;;;;;;;11.00;7.50;;;9.30;99.90;;;8.73;100.00;101062.00;4134723;28;20030;-80
2023/04/20 06:32:19;;;;;;;11.90;7.93;;;9.30;99.90;;;8.80;99.96;101066.59;4125715;28;20109;-80
2023/04/20 06:34:20;;;;;;;9.95;7.80;;;9.40;99.90;;;8.78;100.00;101055.38;4135802;28;20507;-80
2023/04/20 06:36:21;;;;;;;11.80;8.00;;;9.40;99.90;;;8.73;99.07;101052.34;4134435;28;20035;-80
2023/04/20 06:38:24;;;;;;;9.82;8.05;;;9.50;99.90;;;8.87;98.13;101066.88;4123190;28;20128;-80
2023/04/20 06:40:28;;;;;;;11.13;7.60;;;9.50;99.90;;;8.85;97.18;101069.66;4127632;28;20497;-80
2023/04/20 06:42:29;;;;;;;12.40;8.55;;;9.50;99.90;;;8.83;96.79;101068.97;4131730;28;20426;-81
2023/04/20 06:44:30;;;;;;;10.90;7.85;;;9.60;99.90;;;8.88;96.00;101068.53;4134410;28;20046;-81
2023/04/20 06:46:31;;;;;;;11.43;8.65;;;9.60;99.90;;;8.90;94.98;101072.69;4123054;28;20030;-80
2023/04/20 06:48:33;;;;;;;12.90;8.35;;;9.60;99.90;;;8.98;93.29;101073.81;4134392;28;20027;-81
2023/04/20 06:50:34;;;;;;;13.57;8.20;;;9.70;99.90;;;9.02;93.01;101069.94;4135647;28;20026;-81
2023/04/20 06:52:39;;;;;;;14.85;8.43;;;9.70;99.90;;;8.99;92.49;101072.84;4134706;28;20038;-81
2023/04/20 06:54:40;;;;;;;11.45;7.65;;;9.70;99.90;;;9.04;92.51;101066.22;4133619;28;20030;-80
2023/04/20 06:56:41;;;;;;;11.75;7.80;;;9.70;99.90;;;9.04;92.19;101060.13;4127820;28;20030;-81
2023/04/20 06:58:42;;;;;;;13.07;7.85;;;9.80;99.90;;;9.07;90.96;101067.72;4134456;28;20024;-81
2023/04/20 07:00:43;;;;;;;11.60;7.72;;;9.80;99.90;;;9.15;89.95;101068.69;4132579;28;20034;-81
2023/04/20 07:02:49;;;;;;;10.02;7.75;;;9.80;99.90;;;9.18;89.18;101068.41;4123054;28;20041;-81
2023/04/20 07:04:50;;;;;;;11.48;7.13;;;9.90;99.90;;;9.18;89.78;101064.94;4134319;28;20031;-81
2023/04/20 07:06:51;;;;;;;9.65;6.95;;;9.90;99.90;;;9.26;88.19;101070.34;4127116;28;20371;-81
2023/04/20 07:08:52;;;;;;;8.65;6.75;;;10.00;99.90;;;9.30;88.14;101071.72;4135062;28;20026;-81
2023/04/20 07:10:53;;;;;;;11.25;7.15;;;10.00;99.90;;;9.32;87.86;101067.16;4118350;28;20522;-81
2023/04/20 07:12:53;;;;;;;10.10;6.70;;;10.00;99.90;;;9.28;87.81;101055.25;4126105;28;20042;-81
2023/04/20 07:14:54;;;;;;;9.85;7.15;;;10.10;99.90;;;9.47;86.76;101081.53;4138334;28;20030;-81
2023/04/20 07:16:55;;;;;;;10.65;7.80;;;10.10;99.90;;;9.36;84.35;101055.38;4122626;28;20031;-81
2023/04/20 07:18:56;;;;;;;10.32;6.97;;;10.20;99.90;;;9.52;84.00;101071.44;4122415;28;20027;-82
2023/04/20 07:20:57;;;;;;;10.07;6.93;;;10.20;99.90;;;9.45;84.32;101051.91;4122241;28;20078;-81
2023/04/20 07:22:58;;;;;;;10.10;6.47;;;10.30;99.90;;;9.63;83.75;101078.34;4122162;28;20033;-81
2023/04/20 07:25:04;;;;;;;9.50;5.60;;;10.30;99.90;;;9.66;82.97;101068.34;4134854;28;20030;-80
2023/04/20 07:27:07;;;;;;;10.43;6.82;;;10.40;99.90;;;9.76;83.07;101071.81;4137079;28;20030;-81
2023/04/20 07:29:08;;;;;;;9.68;5.97;;;10.40;99.90;;;9.82;82.89;101071.25;4130251;28;20034;-81
2023/04/20 07:31:09;;;;;;;8.93;6.25;;;10.50;99.90;;;9.85;82.56;101063.06;4137977;28;20019;-82
2023/04/20 07:33:10;;;;;;;15.90;6.80;;;10.50;99.90;;;9.90;80.82;101073.16;4137777;28;20037;-81
2023/04/20 07:35:11;;;;;;;11.23;6.63;;;10.60;99.90;;;9.92;79.93;101074.66;4132611;28;20019;-82
2023/04/20 07:37:12;;;;;;;8.35;6.20;;;10.60;99.90;;;9.99;80.18;101082.81;4104733;28;20086;-82
2023/04/20 07:39:14;;;;;;;10.00;6.10;;;10.70;99.90;;;10.08;79.11;101081.13;4121907;28;20031;-81
2023/04/20 07:41:15;;;;;;;12.02;6.28;;;10.70;99.90;;;10.11;76.99;101080.84;4121782;28;20024;-81
2023/04/20 07:43:16;;;;;;;11.80;6.28;;;10.80;99.90;;;10.13;77.18;101085.03;4135615;28;20030;-82
2023/04/20 07:45:17;;;;;;;11.05;6.53;;;10.80;99.90;;;10.22;77.58;101080.69;4136313;28;20391;-82
2023/04/20 07:47:18;;;;;;;7.97;5.75;;;10.90;99.90;;;10.31;77.61;101082.44;4125353;28;20057;-82
2023/04/20 07:49:19;;;;;;;7.72;5.72;;;11.00;99.90;;;10.28;76.28;101062.47;4150996;28;20080;-82
2023/04/20 07:51:19;;;;;;;9.00;5.57;;;11.00;99.90;;;10.33;75.88;101067.31;4133557;28;20034;-82
2023/04/20 07:53:20;;;;;;;9.00;5.90;;;11.00;99.90;;;10.33;75.46;101059.41;4137773;28;20030;-83
2023/04/20 07:55:21;;;;;;;9.38;6.00;;;11.10;99.90;;;10.55;75.55;101073.03;4136579;28;20034;-82
2023/04/20 07:57:22;;;;;;;12.38;5.90;;;11.10;99.90;;;10.57;74.91;101075.53;4134495;28;20084;-82
2023/04/20 07:59:24;;;;;;;9.45;5.68;;;11.20;99.90;;;10.62;75.20;101073.28;4124850;28;20029;-82
2023/04/20 08:01:25;;;;;;;9.90;6.95;;;11.30;99.90;;;10.66;74.79;101079.09;4111656;28;20033;-82
2023/04/20 08:03:27;;;;;;;9.68;5.70;;;11.30;99.90;;;10.72;74.11;101081.94;4137567;28;20034;-82
2023/04/20 08:05:28;;;;;;;6.68;5.10;;;11.40;99.90;;;10.72;73.48;101083.78;4123535;28;20376;-83
2023/04/20 08:07:29;;;;;;;9.43;5.50;;;11.40;99.90;;;10.74;72.31;101079.16;4124664;28;20041;-83
2023/04/20 08:09:30;;;;;;;8.10;5.97;;;11.40;99.90;;;10.75;73.00;101075.56;4127897;28;20044;-82
2023/04/20 08:11:31;;;;;;;8.05;5.63;;;11.40;99.90;;;10.75;72.51;101081.63;4132067;28;20031;-82
2023/04/20 08:13:32;;;;;;;13.82;7.22;;;11.40;99.90;;;10.68;72.21;101072.69;4152306;28;20038;-82
2023/04/20 08:15:33;;;;;;;7.78;5.60;;;11.50;99.90;;;10.82;73.92;101077.44;4136156;28;20494;-82
2023/04/20 08:17:33;;;;;;;9.25;5.47;;;11.50;99.90;;;10.82;73.69;101072.16;4137242;28;20092;-82
2023/04/20 08:19:35;;;;;;;11.45;5.40;;;11.50;99.90;;;10.79;72.04;101067.19;4136237;28;20030;-82
2023/04/20 08:21:37;;;;;;;6.55;5.07;;;11.60;99.90;;;10.89;72.23;101073.22;4133193;28;20105;-82
2023/04/20 08:23:38;;;;;;;7.80;5.57;;;11.60;99.90;;;10.96;71.12;101076.09;4124649;28;20026;-82